Time;durP1;ratioP1;P1;durP2;ratioP2;P2;SDS_P1;SDS_P2;PMS_P1;PMS_P2;Temp;Humidity;BMP_temperature;BMP_pressure;BME280_temperature;BME280_humidity;BME280_pressure;Samples;Min_cycle;Max_cycle;Signal;HPM_P1;HPM_P2
2021/01/28 00:00:27;;;;;;;34.20;21.13;;;1.30;99.90;;;;;;5045306;28;20400;-76
2021/01/28 00:02:56;;;;;;;36.83;21.00;;;1.30;99.90;;;;;;5043241;28;20488;-76
2021/01/28 00:05:24;;;;;;;30.23;19.95;;;1.30;99.90;;;;;;5027264;28;20041;-76
2021/01/28 00:07:51;;;;;;;33.53;21.45;;;1.30;99.90;;;;;;5038602;28;20040;-76
2021/01/28 00:10:20;;;;;;;32.20;19.98;;;1.30;99.90;;;;;;5042048;28;20056;-75
2021/01/28 00:12:48;;;;;;;33.65;20.77;;;1.30;99.90;;;;;;5043737;28;20053;-76
2021/01/28 00:15:19;;;;;;;33.72;21.45;;;1.30;99.90;;;;;;5035063;28;20045;-76
2021/01/28 00:17:46;;;;;;;35.90;21.73;;;1.30;99.90;;;;;;5038763;28;20342;-76
2021/01/28 00:20:24;;;;;;;41.53;22.15;;;1.30;99.90;;;;;;5036627;28;20053;-77
2021/01/28 00:22:51;;;;;;;35.13;21.45;;;1.30;99.90;;;;;;5031888;28;20448;-76
2021/01/28 00:25:21;;;;;;;38.60;21.88;;;1.30;99.90;;;;;;5040516;28;20047;-76
2021/01/28 00:27:49;;;;;;;34.03;21.75;;;1.20;99.90;;;;;;5043553;28;20488;-77
2021/01/28 00:30:20;;;;;;;35.08;21.40;;;1.30;99.90;;;;;;5031243;28;20128;-77
2021/01/28 00:32:49;;;;;;;34.22;20.58;;;1.30;99.90;;;;;;5044915;28;20056;-76
2021/01/28 00:35:38;;;;;;;36.60;20.10;;;1.30;99.90;;;;;;5033973;28;20970;-75
2021/01/28 00:38:28;;;;;;;36.20;21.58;;;1.30;99.90;;;;;;5045212;28;20053;-75
2021/01/28 00:40:57;;;;;;;37.95;21.75;;;1.30;99.90;;;;;;5030901;28;20554;-75
2021/01/28 00:43:23;;;;;;;33.80;20.77;;;1.30;99.90;;;;;;5039906;28;20056;-76
2021/01/28 00:45:50;;;;;;;35.13;20.40;;;1.30;99.90;;;;;;5047383;28;20425;-76
2021/01/28 00:48:19;;;;;;;33.42;20.10;;;1.30;99.90;;;;;;5048338;28;20060;-76
2021/01/28 00:50:46;;;;;;;33.90;20.13;;;1.30;99.90;;;;;;5048195;28;20045;-75
2021/01/28 00:53:17;;;;;;;33.45;20.45;;;1.30;99.90;;;;;;5047561;28;20051;-75
2021/01/28 00:55:44;;;;;;;30.88;18.95;;;1.30;99.90;;;;;;5034802;28;20049;-75
2021/01/28 00:58:14;;;;;;;32.53;19.50;;;1.30;99.90;;;;;;5043958;28;20138;-75
2021/01/28 01:00:43;;;;;;;32.40;19.50;;;1.30;99.90;;;;;;5048361;28;20052;-75
2021/01/28 01:03:12;;;;;;;32.70;19.80;;;1.30;99.90;;;;;;5046362;28;20608;-75
2021/01/28 01:05:41;;;;;;;30.73;19.73;;;1.30;99.90;;;;;;5046389;28;20041;-75
2021/01/28 01:08:12;;;;;;;32.10;20.20;;;1.30;99.90;;;;;;5045305;28;20701;-77
2021/01/28 01:10:42;;;;;;;32.33;19.17;;;1.30;99.90;;;;;;5039701;28;20057;-76
2021/01/28 01:13:16;;;;;;;24.40;14.95;;;1.30;99.90;;;;;;5043254;28;20065;-76
2021/01/28 01:15:42;;;;;;;34.92;21.05;;;1.30;99.90;;;;;;5046754;28;20048;-76
2021/01/28 01:18:13;;;;;;;31.60;20.55;;;1.30;99.90;;;;;;5047794;28;20049;-76
2021/01/28 01:20:40;;;;;;;31.98;19.50;;;1.30;99.90;;;;;;5047580;28;20056;-76
2021/01/28 01:23:06;;;;;;;33.58;20.02;;;1.30;99.90;;;;;;5047643;28;20068;-76
2021/01/28 01:25:33;;;;;;;35.28;19.27;;;1.30;99.90;;;;;;5048256;28;20043;-76
2021/01/28 01:28:02;;;;;;;34.30;20.23;;;1.30;99.90;;;;;;5044692;28;20052;-76
2021/01/28 01:30:29;;;;;;;31.08;19.85;;;1.30;99.90;;;;;;5046725;28;20132;-76
2021/01/28 01:32:55;;;;;;;30.08;17.92;;;1.30;99.90;;;;;;5047656;28;20097;-75
2021/01/28 01:35:23;;;;;;;26.83;17.17;;;1.30;99.90;;;;;;5047653;28;20049;-76
2021/01/28 01:37:52;;;;;;;30.73;18.52;;;1.40;99.90;;;;;;5042618;28;20057;-76
2021/01/28 01:40:30;;;;;;;29.73;18.10;;;1.40;99.90;;;;;;5045993;28;20041;-76
2021/01/28 01:42:57;;;;;;;29.67;18.65;;;1.40;99.90;;;;;;5041747;28;20113;-76
2021/01/28 01:45:41;;;;;;;27.40;16.95;;;1.40;99.90;;;;;;5038282;28;20427;-77
2021/01/28 01:48:17;;;;;;;27.33;17.17;;;1.40;99.90;;;;;;5077372;28;20155;-76
2021/01/28 01:51:25;;;;;;;27.52;16.10;;;1.40;99.90;;;;;;5045961;28;20049;-76
2021/01/28 01:53:54;;;;;;;22.67;15.18;;;1.40;99.90;;;;;;5015142;28;20053;-76
2021/01/28 01:56:25;;;;;;;25.15;15.20;;;1.40;99.90;;;;;;5039913;28;20045;-76
2021/01/28 01:59:09;;;;;;;22.00;14.40;;;1.50;99.90;;;;;;5033320;28;20045;-76
2021/01/28 02:01:50;;;;;;;21.30;13.40;;;1.50;99.90;;;;;;5054400;28;20052;-76
2021/01/28 02:04:22;;;;;;;24.48;14.18;;;1.50;99.90;;;;;;5040024;28;20056;-76
2021/01/28 02:06:53;;;;;;;19.42;12.70;;;1.60;99.90;;;;;;5040939;28;20061;-76
2021/01/28 02:09:21;;;;;;;20.20;12.35;;;1.60;99.90;;;;;;5038879;28;20138;-76
2021/01/28 02:11:49;;;;;;;19.40;12.23;;;1.60;99.90;;;;;;5044437;28;20701;-77
2021/01/28 02:14:17;;;;;;;17.85;11.73;;;1.60;99.90;;;;;;5045375;28;20053;-76
2021/01/28 02:17:06;;;;;;;16.58;11.52;;;1.60;99.90;;;;;;5046685;28;20037;-76
2021/01/28 02:19:51;;;;;;;18.17;11.88;;;1.60;99.90;;;;;;5045898;28;20071;-77
2021/01/28 02:22:40;;;;;;;17.92;11.48;;;1.60;99.90;;;;;;5033467;28;20053;-76
2021/01/28 02:25:36;;;;;;;19.60;12.00;;;1.70;99.90;;;;;;5045357;28;20136;-77
2021/01/28 02:28:10;;;;;;;17.27;11.48;;;1.70;99.90;;;;;;5065022;28;20133;-76
2021/01/28 02:30:38;;;;;;;16.85;11.38;;;1.70;99.90;;;;;;5039503;28;20080;-77
2021/01/28 02:33:11;;;;;;;18.50;11.38;;;1.70;99.90;;;;;;5045424;28;20048;-76
2021/01/28 02:35:39;;;;;;;21.85;12.80;;;1.70;99.90;;;;;;5044814;28;20185;-77
2021/01/28 02:38:09;;;;;;;20.42;13.20;;;1.70;99.90;;;;;;5037482;28;20080;-76
2021/01/28 02:40:38;;;;;;;21.13;13.15;;;1.70;99.90;;;;;;5039425;28;20122;-77
2021/01/28 02:43:04;;;;;;;19.05;12.40;;;1.70;99.90;;;;;;5043878;28;20497;-76
2021/01/28 02:45:34;;;;;;;20.80;12.75;;;1.70;99.90;;;;;;5046240;28;20044;-76
2021/01/28 02:48:06;;;;;;;21.10;12.85;;;1.70;99.90;;;;;;5044288;28;20122;-76
2021/01/28 02:50:33;;;;;;;21.90;13.15;;;1.80;99.90;;;;;;5046297;28;20056;-76
2021/01/28 02:53:05;;;;;;;22.67;13.93;;;1.70;99.90;;;;;;5045674;28;20394;-76
2021/01/28 02:55:36;;;;;;;;;;;1.70;99.90;;;;;;5034812;28;20098;-76
2021/01/28 02:58:02;;;;;;;22.58;13.30;;;1.80;99.90;;;;;;5044754;28;20273;-76
2021/01/28 03:00:38;;;;;;;27.08;14.77;;;1.70;99.90;;;;;;5046080;28;20110;-76
2021/01/28 03:03:13;;;;;;;24.55;14.48;;;1.70;99.90;;;;;;5045624;28;20471;-75
2021/01/28 03:05:43;;;;;;;29.92;14.80;;;1.70;99.90;;;;;;5045257;28;20041;-76
2021/01/28 03:08:12;;;;;;;26.35;15.50;;;1.70;99.90;;;;;;5044870;28;20049;-76
2021/01/28 03:10:42;;;;;;;24.45;14.75;;;1.70;99.90;;;;;;5044176;28;20052;-76
2021/01/28 03:13:11;;;;;;;28.58;16.08;;;1.70;99.90;;;;;;5044794;28;20141;-75
2021/01/28 03:15:41;;;;;;;26.85;16.30;;;1.70;99.90;;;;;;5032573;28;20073;-76
2021/01/28 03:18:10;;;;;;;24.92;14.95;;;1.70;99.90;;;;;;5046029;28;20080;-76
2021/01/28 03:20:39;;;;;;;29.23;15.48;;;1.70;99.90;;;;;;5044020;28;20504;-76
2021/01/28 03:23:08;;;;;;;30.52;17.02;;;1.70;99.90;;;;;;5044898;28;20120;-76
2021/01/28 03:25:38;;;;;;;24.33;14.20;;;1.70;99.90;;;;;;5042562;28;20048;-75
2021/01/28 03:28:10;;;;;;;30.27;17.30;;;1.70;99.90;;;;;;5023489;28;20136;-75
2021/01/28 03:30:41;;;;;;;;;;;1.70;99.90;;;;;;5043965;28;20072;-75
2021/01/28 03:33:10;;;;;;;28.38;16.83;;;1.70;99.90;;;;;;5043998;28;20008;-75
2021/01/28 03:35:38;;;;;;;33.58;18.25;;;1.70;99.90;;;;;;5045047;28;20057;-76
2021/01/28 03:38:06;;;;;;;31.90;17.88;;;1.70;99.90;;;;;;5043084;28;20083;-76
2021/01/28 03:40:35;;;;;;;36.25;20.08;;;1.70;99.90;;;;;;5045083;28;20073;-76
2021/01/28 03:43:02;;;;;;;36.53;19.60;;;1.60;99.90;;;;;;5042582;28;20074;-75
2021/01/28 03:45:30;;;;;;;37.33;20.38;;;1.60;99.90;;;;;;5043972;28;20041;-76
2021/01/28 03:48:00;;;;;;;39.00;20.30;;;1.60;99.90;;;;;;5044846;28;20128;-76
2021/01/28 03:50:32;;;;;;;42.33;21.95;;;1.60;99.90;;;;;;5044727;28;20507;-77
2021/01/28 03:52:58;;;;;;;42.80;21.15;;;1.60;99.90;;;;;;5044851;28;20073;-76
2021/01/28 03:55:26;;;;;;;38.30;20.60;;;1.60;99.90;;;;;;5044820;28;20581;-77
2021/01/28 03:57:58;;;;;;;43.20;22.27;;;1.60;99.90;;;;;;5043490;28;20122;-76
2021/01/28 04:00:31;;;;;;;31.75;15.93;;;1.60;99.90;;;;;;5044723;28;20100;-76
2021/01/28 04:02:59;;;;;;;42.67;21.02;;;1.60;99.90;;;;;;5044310;28;20049;-76
2021/01/28 04:05:26;;;;;;;43.83;20.23;;;1.60;99.90;;;;;;5043103;28;20151;-76
2021/01/28 04:07:53;;;;;;;41.30;21.65;;;1.60;99.90;;;;;;5043046;28;20346;-76
2021/01/28 04:10:29;;;;;;;39.42;20.63;;;1.70;99.90;;;;;;5042828;28;20055;-76
2021/01/28 04:12:56;;;;;;;35.55;18.98;;;1.70;99.90;;;;;;5043651;28;20431;-76
2021/01/28 04:15:25;;;;;;;38.97;19.88;;;1.60;99.90;;;;;;5043197;28;20627;-76
2021/01/28 04:17:53;;;;;;;34.97;19.25;;;1.70;99.90;;;;;;5044891;28;20140;-75
2021/01/28 04:20:27;;;;;;;34.65;19.65;;;1.70;99.90;;;;;;5044027;28;20124;-76
2021/01/28 04:22:54;;;;;;;34.75;17.98;;;1.70;99.90;;;;;;5044205;28;20462;-75
2021/01/28 04:25:21;;;;;;;33.30;18.17;;;1.70;99.90;;;;;;5042854;28;20433;-76
2021/01/28 04:27:48;;;;;;;33.70;18.77;;;1.70;99.90;;;;;;5042145;28;20048;-75
2021/01/28 04:30:25;;;;;;;34.78;19.17;;;1.70;99.90;;;;;;5044447;28;20143;-75
2021/01/28 04:32:52;;;;;;;32.03;18.50;;;1.70;99.90;;;;;;5043112;28;20045;-75
2021/01/28 04:35:19;;;;;;;34.60;18.23;;;1.70;99.90;;;;;;5043916;28;20414;-76
2021/01/28 04:37:46;;;;;;;30.75;17.42;;;1.70;99.90;;;;;;5026455;28;20130;-75
2021/01/28 04:40:34;;;;;;;34.92;19.63;;;1.80;99.90;;;;;;5042778;28;20144;-74
2021/01/28 04:43:20;;;;;;;32.20;18.40;;;1.70;99.90;;;;;;5043503;28;20053;-75
2021/01/28 04:45:49;;;;;;;34.30;19.10;;;1.70;99.90;;;;;;5044195;28;20053;-75
2021/01/28 04:48:20;;;;;;;30.80;17.92;;;1.70;99.90;;;;;;5043569;28;20615;-75
2021/01/28 04:50:49;;;;;;;36.33;18.80;;;1.70;99.90;;;;;;5043731;28;20131;-74
2021/01/28 04:53:26;;;;;;;35.33;19.35;;;1.70;99.90;;;;;;5043874;28;20049;-75
2021/01/28 04:55:54;;;;;;;35.28;19.88;;;1.70;99.90;;;;;;5042939;28;20053;-75
2021/01/28 04:58:21;;;;;;;32.58;18.08;;;1.60;99.90;;;;;;5043143;28;20095;-75
2021/01/28 05:00:50;;;;;;;28.25;18.15;;;1.70;99.90;;;;;;5042800;28;20476;-74
2021/01/28 05:03:32;;;;;;;30.52;16.90;;;1.70;99.90;;;;;;5042462;28;20060;-78
2021/01/28 05:06:00;;;;;;;23.08;12.32;;;1.70;99.90;;;;;;5044531;28;20128;-78
2021/01/28 05:08:29;;;;;;;30.25;17.10;;;1.70;99.90;;;;;;5042271;28;20057;-79
2021/01/28 05:11:00;;;;;;;26.50;16.02;;;1.70;99.90;;;;;;5042930;28;20045;-79
2021/01/28 05:13:29;;;;;;;24.63;14.93;;;1.80;99.90;;;;;;5042412;28;20419;-79
2021/01/28 05:15:58;;;;;;;25.13;15.32;;;1.80;99.90;;;;;;5037007;28;20511;-79
2021/01/28 05:18:38;;;;;;;25.67;14.23;;;1.80;99.90;;;;;;5039208;28;20045;-79
2021/01/28 05:21:16;;;;;;;23.77;14.68;;;1.80;99.90;;;;;;5030747;28;20979;-78
2021/01/28 05:23:44;;;;;;;21.05;13.70;;;1.90;99.90;;;;;;5037744;28;20527;-77
2021/01/28 05:26:34;;;;;;;20.90;13.45;;;1.90;99.90;;;;;;5047501;28;20081;-79
2021/01/28 05:29:42;;;;;;;22.52;13.50;;;1.90;99.90;;;;;;5046539;28;20061;-77
2021/01/28 05:32:35;;;;;;;21.20;13.52;;;2.00;99.90;;;;;;5033397;28;20627;-79
2021/01/28 05:35:20;;;;;;;21.05;12.90;;;2.00;99.90;;;;;;5039026;28;20053;-74
2021/01/28 05:38:09;;;;;;;21.88;12.45;;;2.00;99.90;;;;;;5039533;28;20049;-74
2021/01/28 05:40:38;;;;;;;20.65;12.73;;;2.10;99.90;;;;;;5047758;28;20447;-74
2021/01/28 05:43:30;;;;;;;18.00;11.82;;;2.00;99.90;;;;;;5046414;28;20044;-75
2021/01/28 05:46:18;;;;;;;17.02;10.80;;;2.10;99.90;;;;;;5042157;28;20103;-74
2021/01/28 05:49:00;;;;;;;18.92;12.25;;;2.10;99.90;;;;;;5038620;28;20072;-74
2021/01/28 05:51:36;;;;;;;20.73;11.75;;;2.10;99.90;;;;;;5032401;28;20095;-74
2021/01/28 05:54:18;;;;;;;21.45;11.75;;;2.10;99.90;;;;;;5046363;28;20163;-76
2021/01/28 05:57:23;;;;;;;19.10;11.00;;;2.10;99.90;;;;;;5056269;28;20560;-75
2021/01/28 05:59:57;;;;;;;17.38;10.55;;;2.10;99.90;;;;;;5043752;28;20139;-74
2021/01/28 06:02:54;;;;;;;19.23;11.35;;;2.10;99.90;;;;;;5040255;28;20192;-74
2021/01/28 06:05:38;;;;;;;16.52;10.27;;;2.20;99.90;;;;;;5038733;28;20575;-75
2021/01/28 06:08:11;;;;;;;15.80;10.07;;;2.20;99.90;;;;;;5069743;28;20048;-75
2021/01/28 06:11:01;;;;;;;16.77;9.55;;;2.20;99.90;;;;;;5037612;28;20049;-74
2021/01/28 06:13:53;;;;;;;18.38;10.38;;;2.20;99.90;;;;;;5039645;28;20044;-74
2021/01/28 06:16:46;;;;;;;15.05;10.18;;;2.10;99.90;;;;;;5040599;28;20046;-73
2021/01/28 06:19:27;;;;;;;18.25;11.05;;;2.20;99.90;;;;;;5044019;28;20407;-74
2021/01/28 06:22:32;;;;;;;19.98;11.05;;;2.20;99.90;;;;;;5044913;28;20136;-74
2021/01/28 06:25:45;;;;;;;21.98;13.43;;;2.20;99.90;;;;;;5044002;28;20585;-74
2021/01/28 06:28:45;;;;;;;17.00;10.98;;;2.20;99.90;;;;;;5032927;28;20057;-74
2021/01/28 06:31:19;;;;;;;27.50;16.25;;;2.20;99.90;;;;;;5031865;28;20199;-74
2021/01/28 06:34:21;;;;;;;28.20;16.65;;;2.20;99.90;;;;;;5064094;28;20080;-74
2021/01/28 06:37:26;;;;;;;24.30;14.27;;;2.20;99.90;;;;;;5054371;28;20051;-74
2021/01/28 06:39:58;;;;;;;32.97;18.80;;;2.20;99.90;;;;;;5043460;28;20150;-74
2021/01/28 06:42:30;;;;;;;33.30;19.30;;;2.20;99.90;;;;;;5031885;28;20045;-75
2021/01/28 06:45:12;;;;;;;31.70;17.27;;;2.20;99.90;;;;;;5044643;28;20468;-74
2021/01/28 06:48:03;;;;;;;32.00;16.83;;;2.30;99.90;;;;;;5043773;28;20060;-75
2021/01/28 06:50:39;;;;;;;25.08;13.85;;;2.30;99.90;;;;;;5045894;28;20060;-75
2021/01/28 06:53:21;;;;;;;24.80;12.98;;;2.30;99.90;;;;;;5045506;28;20045;-74
2021/01/28 06:56:05;;;;;;;23.55;13.23;;;2.30;99.90;;;;;;5044312;28;20057;-75
2021/01/28 06:58:40;;;;;;;23.13;13.30;;;2.30;99.90;;;;;;5043641;28;20041;-75
2021/01/28 07:01:39;;;;;;;19.45;12.00;;;2.30;99.90;;;;;;5044848;28;20056;-75
2021/01/28 07:04:32;;;;;;;21.67;12.75;;;2.30;99.90;;;;;;5045319;28;20091;-75
2021/01/28 07:07:25;;;;;;;21.42;12.90;;;2.30;99.90;;;;;;5034090;28;20207;-75
2021/01/28 07:09:58;;;;;;;;;;;2.40;99.90;;;;;;5043455;28;20071;-75
2021/01/28 07:12:30;;;;;;;;;;;2.40;99.90;;;;;;5043098;28;19998;-76
2021/01/28 07:14:56;;;;;;;18.13;11.25;;;2.40;99.90;;;;;;5037636;28;20051;-75
2021/01/28 07:17:28;;;;;;;18.13;10.90;;;2.40;99.90;;;;;;5029603;28;20052;-76
2021/01/28 07:20:01;;;;;;;16.35;10.77;;;2.40;99.90;;;;;;5041080;28;20052;-75
2021/01/28 07:22:31;;;;;;;16.60;10.45;;;2.40;99.90;;;;;;5044225;28;20041;-74
2021/01/28 07:25:31;;;;;;;17.17;10.68;;;2.40;99.90;;;;;;5045603;28;20166;-74
2021/01/28 07:27:59;;;;;;;13.55;8.70;;;2.50;99.90;;;;;;5044293;28;20117;-75
2021/01/28 07:30:43;;;;;;;18.38;10.15;;;2.50;99.90;;;;;;5042935;28;20406;-76
2021/01/28 07:33:26;;;;;;;15.02;9.70;;;2.50;99.90;;;;;;5031700;28;20140;-75
2021/01/28 07:35:54;;;;;;;15.50;9.40;;;2.50;99.90;;;;;;5045156;28;20092;-74
2021/01/28 07:38:31;;;;;;;19.67;11.27;;;2.50;99.90;;;;;;5037027;28;20060;-74
2021/01/28 07:41:12;;;;;;;12.13;8.60;;;2.60;99.90;;;;;;5042755;28;20056;-74
2021/01/28 07:43:47;;;;;;;14.18;8.90;;;2.50;99.90;;;;;;5026575;28;20412;-75
2021/01/28 07:46:37;;;;;;;11.30;7.85;;;2.60;99.90;;;;;;5044107;28;20037;-75
2021/01/28 07:49:28;;;;;;;12.77;8.18;;;2.60;99.90;;;;;;5071824;28;20045;-75
2021/01/28 07:52:00;;;;;;;12.27;8.15;;;2.60;99.90;;;;;;5044278;28;20516;-75
2021/01/28 07:54:28;;;;;;;12.55;8.38;;;2.60;99.90;;;;;;5045224;28;20132;-75
2021/01/28 07:57:10;;;;;;;15.27;8.18;;;2.60;99.90;;;;;;5042926;28;20131;-75
2021/01/28 07:59:56;;;;;;;15.13;9.13;;;2.60;99.90;;;;;;5041477;28;20044;-75
2021/01/28 08:02:32;;;;;;;12.55;8.07;;;2.60;99.90;;;;;;5043276;28;20045;-75
2021/01/28 08:05:16;;;;;;;11.45;7.07;;;2.70;99.90;;;;;;5066894;28;20067;-74
2021/01/28 08:07:46;;;;;;;12.52;7.55;;;2.70;99.90;;;;;;5044469;28;20064;-75
2021/01/28 08:10:34;;;;;;;11.07;6.97;;;2.80;99.90;;;;;;5043152;28;20049;-75
2021/01/28 08:13:11;;;;;;;10.00;6.60;;;2.80;99.90;;;;;;5042246;28;20049;-74
2021/01/28 08:15:44;;;;;;;13.98;7.57;;;2.80;99.90;;;;;;5043191;28;20045;-74
2021/01/28 08:18:44;;;;;;;10.85;6.38;;;2.80;99.90;;;;;;5044571;28;20045;-74
2021/01/28 08:21:25;;;;;;;9.45;6.80;;;2.90;99.90;;;;;;5017724;28;20516;-74
2021/01/28 08:23:55;;;;;;;11.55;7.10;;;2.80;99.90;;;;;;5030366;28;20049;-74
2021/01/28 08:26:32;;;;;;;12.35;7.82;;;2.80;99.90;;;;;;5042271;28;20041;-75
2021/01/28 08:29:21;;;;;;;10.60;7.05;;;2.80;99.90;;;;;;5031010;28;20064;-75
2021/01/28 08:31:56;;;;;;;14.25;8.20;;;2.80;99.90;;;;;;5043684;28;20748;-74
2021/01/28 08:34:27;;;;;;;13.40;8.15;;;2.80;99.90;;;;;;5044979;28;20089;-74
2021/01/28 08:37:02;;;;;;;12.98;7.55;;;2.80;99.90;;;;;;5044095;28;20057;-74
2021/01/28 08:39:36;;;;;;;14.07;6.72;;;2.80;99.90;;;;;;5043595;28;20049;-74
2021/01/28 08:42:05;;;;;;;9.63;6.85;;;2.90;99.90;;;;;;5042212;28;20060;-74
2021/01/28 08:44:34;;;;;;;10.55;6.72;;;2.90;99.90;;;;;;5042882;28;20052;-74
2021/01/28 08:47:17;;;;;;;8.25;6.05;;;3.00;99.90;;;;;;5043306;28;20041;-74
2021/01/28 08:49:58;;;;;;;10.77;6.22;;;3.10;99.90;;;;;;5034832;28;20045;-74
2021/01/28 08:52:26;;;;;;;9.18;5.97;;;3.10;99.90;;;;;;5042004;28;20124;-74
2021/01/28 08:54:52;;;;;;;8.25;5.45;;;3.20;99.90;;;;;;5043521;28;20075;-74
2021/01/28 08:57:24;;;;;;;12.07;5.85;;;3.20;99.90;;;;;;5022785;28;20045;-75
2021/01/28 09:00:03;;;;;;;7.32;4.72;;;3.20;99.90;;;;;;5059673;28;20072;-74
2021/01/28 09:02:36;;;;;;;11.23;6.28;;;3.10;99.90;;;;;;5041119;28;20587;-74
2021/01/28 09:05:24;;;;;;;10.07;6.05;;;3.20;99.90;;;;;;5040153;28;20053;-74
2021/01/28 09:07:59;;;;;;;10.07;5.05;;;3.20;99.90;;;;;;5047330;28;20601;-74
2021/01/28 09:10:40;;;;;;;9.13;5.25;;;3.20;99.90;;;;;;5047012;28;20144;-74
2021/01/28 09:13:21;;;;;;;7.82;5.75;;;3.30;99.90;;;;;;5045892;28;20060;-75
2021/01/28 09:16:09;;;;;;;12.30;6.25;;;3.20;99.90;;;;;;5046779;28;20092;-75
2021/01/28 09:18:50;;;;;;;8.07;5.40;;;3.30;99.90;;;;;;5048537;28;20104;-75
2021/01/28 09:21:22;;;;;;;10.02;5.97;;;3.30;99.90;;;;;;5035906;28;20060;-76
2021/01/28 09:24:31;;;;;;;7.60;5.00;;;3.30;99.90;;;;;;5045555;28;20469;-75
2021/01/28 09:27:21;;;;;;;13.20;4.38;;;3.40;99.90;;;;;;5045705;28;20065;-75
2021/01/28 09:29:55;;;;;;;5.20;3.95;;;3.50;99.90;;;;;;5046030;28;20053;-75
2021/01/28 09:32:24;;;;;;;6.28;4.20;;;3.50;99.90;;;;;;5041110;28;20320;-74
2021/01/28 09:35:15;;;;;;;5.30;3.67;;;3.60;99.90;;;;;;5039629;28;20565;-75
2021/01/28 09:38:04;;;;;;;6.47;3.58;;;3.60;99.90;;;;;;5040628;28;20041;-74
2021/01/28 09:40:37;;;;;;;6.60;3.70;;;3.80;99.90;;;;;;5040674;28;20051;-75
2021/01/28 09:43:32;;;;;;;7.88;3.67;;;3.80;99.90;;;;;;5043556;28;20048;-74
2021/01/28 09:46:09;;;;;;;4.20;3.03;;;3.80;99.90;;;;;;5042530;28;20496;-74
2021/01/28 09:48:39;;;;;;;5.90;3.67;;;3.80;99.90;;;;;;5036828;28;20053;-74
2021/01/28 09:51:08;;;;;;;4.95;3.53;;;3.80;99.90;;;;;;5042888;28;20051;-75
2021/01/28 09:53:40;;;;;;;4.43;2.67;;;3.80;99.90;;;;;;5044943;28;20155;-74
2021/01/28 09:56:07;;;;;;;;;;;3.80;99.90;;;;;;5040958;28;20156;-75
2021/01/28 09:58:34;;;;;;;3.55;3.05;;;3.80;99.90;;;;;;5042839;28;19921;-74
2021/01/28 10:01:04;;;;;;;9.00;3.05;;;3.80;99.90;;;;;;5041670;28;20612;-74
2021/01/28 10:03:31;;;;;;;6.05;3.85;;;3.80;99.90;;;;;;5026014;28;20080;-75
2021/01/28 10:06:03;;;;;;;6.40;3.45;;;3.80;99.90;;;;;;5037403;28;20415;-75
2021/01/28 10:08:31;;;;;;;4.40;3.67;;;3.80;99.90;;;;;;5033045;28;20765;-75
2021/01/28 10:10:59;;;;;;;8.13;3.78;;;3.80;99.90;;;;;;5041663;28;20495;-74
2021/01/28 10:13:26;;;;;;;6.15;4.20;;;3.80;99.90;;;;;;5064532;28;20041;-75
2021/01/28 10:15:55;;;;;;;5.78;4.25;;;3.80;99.90;;;;;;5043057;28;20123;-75
2021/01/28 10:18:25;;;;;;;4.85;4.03;;;3.70;99.90;;;;;;5041390;28;20045;-74
2021/01/28 10:20:54;;;;;;;8.90;5.00;;;3.70;99.90;;;;;;5028520;28;20082;-74
2021/01/28 10:23:24;;;;;;;6.78;4.93;;;3.70;99.90;;;;;;5040357;28;20045;-74
2021/01/28 10:25:53;;;;;;;9.32;4.57;;;3.80;99.90;;;;;;5043450;28;20048;-74
2021/01/28 10:28:20;;;;;;;5.20;4.57;;;3.90;99.90;;;;;;5029501;28;20055;-75
2021/01/28 10:30:51;;;;;;;6.07;3.47;;;3.90;99.90;;;;;;5043666;28;20080;-74
2021/01/28 10:33:27;;;;;;;4.88;3.80;;;4.00;99.90;;;;;;5040973;28;20068;-74
2021/01/28 10:35:56;;;;;;;6.63;3.67;;;3.90;99.90;;;;;;5042494;28;20628;-75
2021/01/28 10:38:27;;;;;;;6.60;3.50;;;4.10;99.90;;;;;;5041630;28;20053;-75
2021/01/28 10:40:56;;;;;;;6.30;3.58;;;4.10;99.90;;;;;;5046066;28;20111;-76
2021/01/28 10:43:23;;;;;;;5.70;3.00;;;4.10;99.90;;;;;;5046185;28;20144;-76
2021/01/28 10:45:54;;;;;;;4.65;3.30;;;4.20;99.90;;;;;;5045415;28;20041;-76
2021/01/28 10:48:21;;;;;;;5.05;3.50;;;4.20;99.90;;;;;;5046118;28;20507;-75
2021/01/28 10:50:49;;;;;;;4.68;3.38;;;4.20;99.90;;;;;;5039659;28;20052;-73
2021/01/28 10:53:21;;;;;;;5.15;3.30;;;4.30;99.90;;;;;;5044469;28;20056;-74
2021/01/28 10:55:48;;;;;;;5.68;3.72;;;4.30;99.90;;;;;;5042995;28;20045;-74
2021/01/28 10:58:14;;;;;;;3.72;3.10;;;4.30;99.90;;;;;;5025614;28;20056;-75
2021/01/28 11:00:41;;;;;;;9.10;3.55;;;4.30;99.90;;;;;;5038939;28;20049;-74
2021/01/28 11:03:07;;;;;;;4.43;3.20;;;4.50;99.90;;;;;;5072376;28;20079;-74
2021/01/28 11:05:36;;;;;;;5.60;3.78;;;4.60;99.90;;;;;;5040570;28;20122;-74
2021/01/28 11:08:05;;;;;;;3.63;3.25;;;4.60;99.90;;;;;;5038946;28;20135;-75
2021/01/28 11:10:32;;;;;;;5.25;3.33;;;4.60;99.90;;;;;;5042392;28;20544;-77
2021/01/28 11:13:00;;;;;;;4.38;3.97;;;4.60;99.90;;;;;;5037221;28;20068;-74
2021/01/28 11:15:32;;;;;;;6.40;3.63;;;4.60;99.90;;;;;;5046524;28;20148;-75
2021/01/28 11:18:00;;;;;;;4.70;3.45;;;4.70;99.90;;;;;;5036948;28;20064;-75
2021/01/28 11:20:27;;;;;;;5.90;4.07;;;4.70;99.90;;;;;;5039796;28;20056;-74
2021/01/28 11:22:54;;;;;;;3.97;3.53;;;4.70;99.90;;;;;;5038419;28;20578;-74
2021/01/28 11:25:25;;;;;;;4.53;3.88;;;4.60;99.90;;;;;;5040811;28;20052;-74
2021/01/28 11:27:56;;;;;;;4.72;3.75;;;4.60;99.90;;;;;;5042830;28;20132;-74
2021/01/28 11:30:28;;;;;;;5.55;4.47;;;4.50;99.90;;;;;;5036037;28;20041;-75
2021/01/28 11:32:55;;;;;;;4.60;4.20;;;4.50;99.90;;;;;;5043195;28;20052;-74
2021/01/28 11:35:24;;;;;;;5.38;4.00;;;4.50;99.90;;;;;;5032487;28;21532;-75
2021/01/28 11:37:54;;;;;;;5.63;4.07;;;4.60;99.90;;;;;;5043055;28;20053;-75
2021/01/28 11:40:24;;;;;;;9.32;4.95;;;4.80;99.90;;;;;;5041404;28;20155;-75
2021/01/28 11:42:54;;;;;;;3.88;3.47;;;5.20;99.90;;;;;;5068689;28;20500;-75
2021/01/28 11:45:26;;;;;;;6.47;3.50;;;5.60;99.90;;;;;;5029535;28;20134;-74
2021/01/28 11:47:59;;;;;;;3.83;2.75;;;5.70;99.90;;;;;;5039677;28;20055;-76
2021/01/28 11:50:26;;;;;;;;;;;6.10;99.90;;;;;;5042400;28;20081;-75
2021/01/28 11:53:00;;;;;;;2.60;2.17;;;6.30;99.90;;;;;;5040048;28;20020;-75
2021/01/28 11:55:30;;;;;;;4.68;2.72;;;6.30;99.90;;;;;;5037401;28;20049;-77
2021/01/28 11:57:59;;;;;;;3.85;2.65;;;6.10;99.90;;;;;;5031969;28;20546;-74
2021/01/28 12:00:28;;;;;;;3.10;2.60;;;6.00;99.90;;;;;;5030306;28;20045;-74
2021/01/28 12:02:57;;;;;;;3.10;2.75;;;5.80;99.90;;;;;;5038163;28;20065;-75
2021/01/28 12:05:28;;;;;;;2.63;2.40;;;5.70;99.90;;;;;;5029539;28;20099;-75
2021/01/28 12:07:57;;;;;;;4.25;2.65;;;5.70;99.90;;;;;;5027947;28;20053;-75
2021/01/28 12:10:27;;;;;;;3.30;2.60;;;5.80;99.90;;;;;;5041751;28;20076;-76
2021/01/28 12:12:57;;;;;;;2.15;1.83;;;6.30;99.90;;;;;;5044038;28;20049;-74
2021/01/28 12:15:24;;;;;;;6.65;2.53;;;6.60;99.90;;;;;;5043697;28;20052;-76
2021/01/28 12:17:53;;;;;;;3.42;3.00;;;6.40;99.90;;;;;;5029499;28;20114;-75
2021/01/28 12:20:26;;;;;;;3.10;2.22;;;6.30;99.90;;;;;;5044887;28;20045;-76
2021/01/28 12:22:52;;;;;;;3.43;2.10;;;6.80;99.90;;;;;;5038747;28;20106;-76
2021/01/28 12:25:39;;;;;;;2.72;2.15;;;7.10;99.90;;;;;;5037991;28;20147;-75
2021/01/28 12:28:08;;;;;;;2.50;2.10;;;6.90;99.90;;;;;;5043430;28;20091;-74
2021/01/28 12:30:35;;;;;;;2.40;2.20;;;6.70;99.90;;;;;;5040842;28;20049;-75
2021/01/28 12:33:02;;;;;;;3.80;2.35;;;6.60;99.90;;;;;;5026666;28;20120;-75
2021/01/28 12:35:33;;;;;;;3.05;2.53;;;6.80;99.90;;;;;;5034819;28;20041;-75
2021/01/28 12:38:01;;;;;;;4.93;2.42;;;6.80;99.90;;;;;;5068908;28;20048;-75
2021/01/28 12:40:27;;;;;;;4.28;2.78;;;6.70;99.90;;;;;;5043522;28;20045;-74
2021/01/28 12:42:59;;;;;;;4.30;3.00;;;6.50;99.90;;;;;;5036523;28;20053;-75
2021/01/28 12:45:27;;;;;;;6.00;3.20;;;6.70;99.90;;;;;;5053710;28;20059;-75
2021/01/28 12:47:59;;;;;;;6.07;2.97;;;6.70;99.90;;;;;;5046221;28;20467;-75
2021/01/28 12:50:27;;;;;;;5.07;3.22;;;6.70;99.90;;;;;;5046987;28;20099;-75
2021/01/28 12:52:55;;;;;;;3.78;3.40;;;6.50;99.90;;;;;;5046674;28;20143;-75
2021/01/28 12:55:21;;;;;;;4.25;3.85;;;6.40;99.90;;;;;;5047315;28;20567;-75
2021/01/28 12:57:51;;;;;;;3.90;3.55;;;6.30;99.90;;;;;;5047396;28;20106;-75
2021/01/28 13:00:21;;;;;;;5.97;4.15;;;6.30;99.90;;;;;;5048511;28;20075;-75
2021/01/28 13:02:49;;;;;;;5.97;4.20;;;6.30;99.90;;;;;;5046891;28;20128;-76
2021/01/28 13:05:19;;;;;;;5.85;4.07;;;6.40;99.90;;;;;;5047846;28;20057;-76
2021/01/28 13:07:49;;;;;;;6.50;4.40;;;6.50;99.90;;;;;;5046419;28;20052;-74
2021/01/28 13:10:17;;;;;;;5.85;3.95;;;6.60;99.90;;;;;;5048303;28;20676;-75
2021/01/28 13:12:43;;;;;;;6.95;4.28;;;6.60;99.90;;;;;;5045306;28;20462;-74
2021/01/28 13:15:17;;;;;;;4.25;3.60;;;6.60;99.90;;;;;;5047406;28;20147;-74
2021/01/28 13:17:47;;;;;;;4.80;3.50;;;6.70;99.90;;;;;;5043535;28;20053;-74
2021/01/28 13:20:16;;;;;;;4.15;3.22;;;6.70;99.90;;;;;;5047487;28;20040;-74